Etusivu
METAR-TAF:

METAR-TAF

Lentoasemat :

Guilin, Kiina

Leveyspiiri: 25-20N, Pituuspiiri: 110-18E, korkeus merenpinnasta: 166 m

Tämänhetkinen sää

Tämä raportti tehtiin 1 tunti ja 7 minuuttia sitten, kello 03.00 UTC
Tuuli 2 kn eri suunnista
Lämpötila 14°C
Kosteus 88%
Ilmanpaine 1024 hPa
Näkyvyys: 4500 m
Muutamia pilviä 900 ft:n korkeudessa
Hajanaisia pilviä 3000 ft:n korkeudessa
Pilvistä 4600 ft:n korkeudessa
utua

METAR: ZGKL 210300Z VRB01MPS 4500 BR FEW009 SCT030 OVC046 14/12 Q1024 NOSIG

Aika: 12:07 (04:07 UTC)

Sääennuste

Tämä raportti tehtiin 8 tuntia ja 53 minuuttia sitten, kello 19.14 UTC
Ennuste voimassa 21. päivästä klo 00 UTC - 21. päivään klo 24 UTC
Tuuli 6 kn koillisesta
Näkyvyys: 4000 m
Muutamia pilviä 600 ft:n korkeudessa
Hajanaisia pilviä 2000 ft:n korkeudessa
Pilvistä 3000 ft:n korkeudessa
heikkoa sadetta, utua

TAF: ZGKL 201914Z 2100/2124 05003MPS 4000 -RA BR FEW006 SCT020 OVC030 TX14/2108Z TN10/2122Z

Säähavainnot ja -ennusteet yli 4000 lentoasemalta (METAR- ja TAF-raportit).

Käytössä olevat sääasemat on merkitty karttaan keltaisilla ja punaisilla pisteillä.

Aseta hiiri pisteen päälle nähdäksesi sääaseman nimen.

Klikkaa sitten nähdäksesi säähavainnot ja -ennusteet.

Kartan vaihtaminen: klikkaa mustalla rastilla varustettuja vihreitä pisteitä, niin voit zoomata sisään; viivalla varustettua vihreää pistettä, niin voit zoomata ulos tai vihreitä nuolia, niin pääset viereisille kartoille.


METAR-TAF: